sensor_id;sensor_type;location;lat;lon;timestamp;temperature;humidity
9448;DHT22;4762;48.128;11.376;2023-01-15T00:13:05;7.40;72.40
9448;DHT22;4762;48.128;11.376;2023-01-15T00:15:17;7.40;72.10
9448;DHT22;4762;48.128;11.376;2023-01-15T00:17:20;7.40;72.00
9448;DHT22;4762;48.128;11.376;2023-01-15T00:19:24;7.50;72.20
9448;DHT22;4762;48.128;11.376;2023-01-15T00:21:27;7.40;72.40
9448;DHT22;4762;48.128;11.376;2023-01-15T00:23:29;7.40;72.50
9448;DHT22;4762;48.128;11.376;2023-01-15T00:25:46;7.30;73.10
9448;DHT22;4762;48.128;11.376;2023-01-15T00:27:58;7.40;73.50
9448;DHT22;4762;48.128;11.376;2023-01-15T00:30:00;7.30;73.40
9448;DHT22;4762;48.128;11.376;2023-01-15T00:32:04;7.30;72.20
9448;DHT22;4762;48.128;11.376;2023-01-15T00:34:08;7.30;71.60
9448;DHT22;4762;48.128;11.376;2023-01-15T00:36:13;7.40;72.50
9448;DHT22;4762;48.128;11.376;2023-01-15T00:38:18;7.30;73.10
9448;DHT22;4762;48.128;11.376;2023-01-15T00:40:21;7.20;73.20
9448;DHT22;4762;48.128;11.376;2023-01-15T00:42:23;7.10;74.10
9448;DHT22;4762;48.128;11.376;2023-01-15T00:44:26;7.10;73.60
9448;DHT22;4762;48.128;11.376;2023-01-15T00:46:29;7.10;74.30
9448;DHT22;4762;48.128;11.376;2023-01-15T00:48:31;7.00;73.60
9448;DHT22;4762;48.128;11.376;2023-01-15T00:50:33;7.00;73.90
9448;DHT22;4762;48.128;11.376;2023-01-15T00:52:36;7.00;73.40
9448;DHT22;4762;48.128;11.376;2023-01-15T00:54:42;6.80;75.20
9448;DHT22;4762;48.128;11.376;2023-01-15T00:56:50;6.90;75.30
9448;DHT22;4762;48.128;11.376;2023-01-15T00:58:55;7.00;75.60
9448;DHT22;4762;48.128;11.376;2023-01-15T01:00:59;6.90;74.10
9448;DHT22;4762;48.128;11.376;2023-01-15T01:03:02;7.00;75.40
9448;DHT22;4762;48.128;11.376;2023-01-15T01:05:06;6.80;74.70
9448;DHT22;4762;48.128;11.376;2023-01-15T01:07:09;7.00;75.40
9448;DHT22;4762;48.128;11.376;2023-01-15T01:09:12;7.00;73.40
9448;DHT22;4762;48.128;11.376;2023-01-15T01:11:15;7.00;73.90
9448;DHT22;4762;48.128;11.376;2023-01-15T01:13:17;6.90;73.80
9448;DHT22;4762;48.128;11.376;2023-01-15T01:15:20;7.00;74.10
9448;DHT22;4762;48.128;11.376;2023-01-15T01:17:23;7.00;73.70
9448;DHT22;4762;48.128;11.376;2023-01-15T01:19:26;6.80;75.70
9448;DHT22;4762;48.128;11.376;2023-01-15T01:38:46;6.20;80.50
9448;DHT22;4762;48.128;11.376;2023-01-15T01:40:49;6.10;82.10
9448;DHT22;4762;48.128;11.376;2023-01-15T01:42:52;6.30;81.40
9448;DHT22;4762;48.128;11.376;2023-01-15T01:44:59;6.10;82.10
9448;DHT22;4762;48.128;11.376;2023-01-15T01:47:00;6.20;82.50
9448;DHT22;4762;48.128;11.376;2023-01-15T01:49:05;6.20;81.50
9448;DHT22;4762;48.128;11.376;2023-01-15T01:51:06;6.20;82.30
9448;DHT22;4762;48.128;11.376;2023-01-15T01:53:13;6.10;83.90
9448;DHT22;4762;48.128;11.376;2023-01-15T01:55:15;6.10;83.70
9448;DHT22;4762;48.128;11.376;2023-01-15T01:57:16;6.10;83.10
9448;DHT22;4762;48.128;11.376;2023-01-15T01:59:19;6.30;82.00
9448;DHT22;4762;48.128;11.376;2023-01-15T02:01:21;6.30;81.60
9448;DHT22;4762;48.128;11.376;2023-01-15T02:03:25;6.20;82.40
9448;DHT22;4762;48.128;11.376;2023-01-15T02:05:29;6.20;80.90
9448;DHT22;4762;48.128;11.376;2023-01-15T02:07:31;6.30;81.80
9448;DHT22;4762;48.128;11.376;2023-01-15T02:09:33;6.30;81.20
9448;DHT22;4762;48.128;11.376;2023-01-15T02:11:35;6.20;80.30
9448;DHT22;4762;48.128;11.376;2023-01-15T02:13:39;6.40;80.60
9448;DHT22;4762;48.128;11.376;2023-01-15T02:15:42;6.40;80.10
9448;DHT22;4762;48.128;11.376;2023-01-15T02:17:47;6.40;79.20
9448;DHT22;4762;48.128;11.376;2023-01-15T02:20:23;6.50;79.20
9448;DHT22;4762;48.128;11.376;2023-01-15T02:22:32;6.50;79.10
9448;DHT22;4762;48.128;11.376;2023-01-15T02:24:36;6.40;79.50
9448;DHT22;4762;48.128;11.376;2023-01-15T02:26:46;6.40;79.50
9448;DHT22;4762;48.128;11.376;2023-01-15T02:28:50;6.30;80.00
9448;DHT22;4762;48.128;11.376;2023-01-15T02:30:56;6.20;79.10
9448;DHT22;4762;48.128;11.376;2023-01-15T02:32:57;6.40;79.50
9448;DHT22;4762;48.128;11.376;2023-01-15T02:35:00;6.30;80.20
9448;DHT22;4762;48.128;11.376;2023-01-15T02:37:04;6.30;80.40
9448;DHT22;4762;48.128;11.376;2023-01-15T02:39:06;6.30;79.70
9448;DHT22;4762;48.128;11.376;2023-01-15T02:41:08;6.40;78.60
9448;DHT22;4762;48.128;11.376;2023-01-15T02:43:11;6.50;80.30
9448;DHT22;4762;48.128;11.376;2023-01-15T02:45:14;6.50;78.80
9448;DHT22;4762;48.128;11.376;2023-01-15T02:47:17;6.80;77.40
9448;DHT22;4762;48.128;11.376;2023-01-15T02:49:18;6.70;77.30
9448;DHT22;4762;48.128;11.376;2023-01-15T02:51:22;6.90;76.50
9448;DHT22;4762;48.128;11.376;2023-01-15T02:53:26;7.00;77.90
9448;DHT22;4762;48.128;11.376;2023-01-15T02:55:30;7.00;77.00
9448;DHT22;4762;48.128;11.376;2023-01-15T02:57:32;7.00;78.30
9448;DHT22;4762;48.128;11.376;2023-01-15T02:59:36;7.00;77.30
9448;DHT22;4762;48.128;11.376;2023-01-15T03:01:42;7.20;76.80
9448;DHT22;4762;48.128;11.376;2023-01-15T03:03:52;7.00;78.00
9448;DHT22;4762;48.128;11.376;2023-01-15T03:06:10;7.10;77.10
9448;DHT22;4762;48.128;11.376;2023-01-15T03:08:11;7.20;77.00
9448;DHT22;4762;48.128;11.376;2023-01-15T03:10:13;7.10;78.60
9448;DHT22;4762;48.128;11.376;2023-01-15T03:12:35;7.10;77.90
9448;DHT22;4762;48.128;11.376;2023-01-15T03:14:39;7.10;79.40
9448;DHT22;4762;48.128;11.376;2023-01-15T03:19:19;6.80;79.80
9448;DHT22;4762;48.128;11.376;2023-01-15T03:21:20;6.80;80.70
9448;DHT22;4762;48.128;11.376;2023-01-15T03:23:23;6.90;80.70
9448;DHT22;4762;48.128;11.376;2023-01-15T03:25:26;6.90;79.90
9448;DHT22;4762;48.128;11.376;2023-01-15T03:27:27;6.90;79.40
9448;DHT22;4762;48.128;11.376;2023-01-15T03:29:35;6.90;80.50
9448;DHT22;4762;48.128;11.376;2023-01-15T03:31:35;6.70;80.70
9448;DHT22;4762;48.128;11.376;2023-01-15T03:33:37;7.00;80.10
9448;DHT22;4762;48.128;11.376;2023-01-15T03:35:47;6.70;80.70
9448;DHT22;4762;48.128;11.376;2023-01-15T03:37:48;6.80;80.00
9448;DHT22;4762;48.128;11.376;2023-01-15T03:39:50;6.80;80.10
9448;DHT22;4762;48.128;11.376;2023-01-15T03:44:16;6.90;80.30
9448;DHT22;4762;48.128;11.376;2023-01-15T03:46:34;7.00;79.40
9448;DHT22;4762;48.128;11.376;2023-01-15T03:48:35;7.10;79.10
9448;DHT22;4762;48.128;11.376;2023-01-15T03:50:42;7.10;79.00
9448;DHT22;4762;48.128;11.376;2023-01-15T03:55:14;7.00;79.70
9448;DHT22;4762;48.128;11.376;2023-01-15T03:57:26;7.00;79.50
9448;DHT22;4762;48.128;11.376;2023-01-15T03:59:28;7.20;78.50
9448;DHT22;4762;48.128;11.376;2023-01-15T04:01:31;7.10;79.50
9448;DHT22;4762;48.128;11.376;2023-01-15T04:03:32;7.00;80.30
9448;DHT22;4762;48.128;11.376;2023-01-15T04:05:36;7.00;80.10
9448;DHT22;4762;48.128;11.376;2023-01-15T04:07:38;7.10;79.60
9448;DHT22;4762;48.128;11.376;2023-01-15T04:09:41;7.20;79.20
9448;DHT22;4762;48.128;11.376;2023-01-15T04:11:43;7.10;79.00
9448;DHT22;4762;48.128;11.376;2023-01-15T04:13:46;7.10;80.10
9448;DHT22;4762;48.128;11.376;2023-01-15T04:15:50;7.00;80.00
9448;DHT22;4762;48.128;11.376;2023-01-15T04:17:53;7.00;80.90
9448;DHT22;4762;48.128;11.376;2023-01-15T04:19:56;6.90;80.90
9448;DHT22;4762;48.128;11.376;2023-01-15T04:21:58;7.00;80.60
9448;DHT22;4762;48.128;11.376;2023-01-15T04:24:01;7.10;80.20
9448;DHT22;4762;48.128;11.376;2023-01-15T04:26:03;6.90;80.60
9448;DHT22;4762;48.128;11.376;2023-01-15T04:28:06;6.90;81.10
9448;DHT22;4762;48.128;11.376;2023-01-15T04:30:09;6.90;82.50
9448;DHT22;4762;48.128;11.376;2023-01-15T04:32:13;6.80;81.20
9448;DHT22;4762;48.128;11.376;2023-01-15T04:34:15;6.70;81.80
9448;DHT22;4762;48.128;11.376;2023-01-15T04:36:17;6.60;82.10
9448;DHT22;4762;48.128;11.376;2023-01-15T04:38:19;6.70;81.90
9448;DHT22;4762;48.128;11.376;2023-01-15T04:40:22;6.70;82.70
9448;DHT22;4762;48.128;11.376;2023-01-15T04:42:30;6.60;82.50
9448;DHT22;4762;48.128;11.376;2023-01-15T04:44:38;6.50;82.70
9448;DHT22;4762;48.128;11.376;2023-01-15T04:46:41;6.60;82.70
9448;DHT22;4762;48.128;11.376;2023-01-15T04:48:44;6.50;83.10
9448;DHT22;4762;48.128;11.376;2023-01-15T04:50:47;6.50;82.90
9448;DHT22;4762;48.128;11.376;2023-01-15T04:52:49;6.70;81.60
9448;DHT22;4762;48.128;11.376;2023-01-15T04:54:53;6.90;81.10
9448;DHT22;4762;48.128;11.376;2023-01-15T04:56:55;7.10;80.70
9448;DHT22;4762;48.128;11.376;2023-01-15T04:58:59;7.10;80.90
9448;DHT22;4762;48.128;11.376;2023-01-15T05:01:10;6.90;80.70
9448;DHT22;4762;48.128;11.376;2023-01-15T05:03:12;7.10;80.90
9448;DHT22;4762;48.128;11.376;2023-01-15T05:05:16;7.30;80.50
9448;DHT22;4762;48.128;11.376;2023-01-15T05:07:19;7.60;80.30
9448;DHT22;4762;48.128;11.376;2023-01-15T05:09:21;7.80;79.80
9448;DHT22;4762;48.128;11.376;2023-01-15T05:11:24;7.90;80.10
9448;DHT22;4762;48.128;11.376;2023-01-15T05:13:26;8.10;79.90
9448;DHT22;4762;48.128;11.376;2023-01-15T05:15:28;8.20;79.90
9448;DHT22;4762;48.128;11.376;2023-01-15T05:17:31;8.40;79.70
9448;DHT22;4762;48.128;11.376;2023-01-15T05:19:34;8.70;78.90
9448;DHT22;4762;48.128;11.376;2023-01-15T05:21:38;8.70;79.10
9448;DHT22;4762;48.128;11.376;2023-01-15T05:23:38;8.70;78.80
9448;DHT22;4762;48.128;11.376;2023-01-15T05:25:41;9.00;78.30
9448;DHT22;4762;48.128;11.376;2023-01-15T05:27:43;9.30;77.30
9448;DHT22;4762;48.128;11.376;2023-01-15T05:29:45;9.60;77.50
9448;DHT22;4762;48.128;11.376;2023-01-15T05:31:48;9.70;77.00
9448;DHT22;4762;48.128;11.376;2023-01-15T05:33:51;9.80;77.10
9448;DHT22;4762;48.128;11.376;2023-01-15T05:35:53;9.80;77.50
9448;DHT22;4762;48.128;11.376;2023-01-15T05:37:56;10.00;77.40
9448;DHT22;4762;48.128;11.376;2023-01-15T05:40:00;10.20;77.20
9448;DHT22;4762;48.128;11.376;2023-01-15T05:42:03;10.20;77.60
9448;DHT22;4762;48.128;11.376;2023-01-15T05:44:08;10.40;77.50
9448;DHT22;4762;48.128;11.376;2023-01-15T05:46:10;10.30;77.80
9448;DHT22;4762;48.128;11.376;2023-01-15T05:48:14;10.50;77.50
9448;DHT22;4762;48.128;11.376;2023-01-15T05:50:16;10.60;77.50
9448;DHT22;4762;48.128;11.376;2023-01-15T05:52:19;10.60;77.70
9448;DHT22;4762;48.128;11.376;2023-01-15T05:54:24;10.90;77.30
9448;DHT22;4762;48.128;11.376;2023-01-15T05:56:26;10.90;77.40
9448;DHT22;4762;48.128;11.376;2023-01-15T06:00:53;10.80;77.90
9448;DHT22;4762;48.128;11.376;2023-01-15T06:02:57;10.90;78.10
9448;DHT22;4762;48.128;11.376;2023-01-15T06:05:01;10.90;78.30
9448;DHT22;4762;48.128;11.376;2023-01-15T06:07:04;10.80;78.40
9448;DHT22;4762;48.128;11.376;2023-01-15T06:09:07;10.80;78.20
9448;DHT22;4762;48.128;11.376;2023-01-15T06:11:09;10.80;78.10
9448;DHT22;4762;48.128;11.376;2023-01-15T06:13:12;10.80;78.40
9448;DHT22;4762;48.128;11.376;2023-01-15T06:15:14;10.70;78.60
9448;DHT22;4762;48.128;11.376;2023-01-15T06:17:17;10.80;78.60
9448;DHT22;4762;48.128;11.376;2023-01-15T06:19:20;10.80;78.50
9448;DHT22;4762;48.128;11.376;2023-01-15T06:21:22;11.00;78.40
9448;DHT22;4762;48.128;11.376;2023-01-15T06:23:25;11.00;78.40
9448;DHT22;4762;48.128;11.376;2023-01-15T06:25:28;11.00;78.40
9448;DHT22;4762;48.128;11.376;2023-01-15T06:27:31;11.00;78.80
9448;DHT22;4762;48.128;11.376;2023-01-15T06:29:36;10.90;79.10
9448;DHT22;4762;48.128;11.376;2023-01-15T06:31:38;11.00;79.10
9448;DHT22;4762;48.128;11.376;2023-01-15T06:33:41;11.00;79.20
9448;DHT22;4762;48.128;11.376;2023-01-15T06:35:43;11.00;79.50
9448;DHT22;4762;48.128;11.376;2023-01-15T06:37:47;10.90;79.60
9448;DHT22;4762;48.128;11.376;2023-01-15T06:39:48;10.80;79.60
9448;DHT22;4762;48.128;11.376;2023-01-15T06:41:51;10.80;79.90
9448;DHT22;4762;48.128;11.376;2023-01-15T06:43:58;10.70;80.10
9448;DHT22;4762;48.128;11.376;2023-01-15T06:46:07;10.80;80.10
9448;DHT22;4762;48.128;11.376;2023-01-15T06:48:16;10.80;80.00
9448;DHT22;4762;48.128;11.376;2023-01-15T06:50:18;10.70;80.30
9448;DHT22;4762;48.128;11.376;2023-01-15T06:52:23;10.80;80.20
9448;DHT22;4762;48.128;11.376;2023-01-15T06:54:25;10.80;80.40
9448;DHT22;4762;48.128;11.376;2023-01-15T06:56:27;10.70;80.70
9448;DHT22;4762;48.128;11.376;2023-01-15T06:58:30;10.70;80.80
9448;DHT22;4762;48.128;11.376;2023-01-15T07:00:32;10.80;80.70
9448;DHT22;4762;48.128;11.376;2023-01-15T07:02:36;10.90;80.30
9448;DHT22;4762;48.128;11.376;2023-01-15T07:04:38;10.90;80.50
9448;DHT22;4762;48.128;11.376;2023-01-15T07:06:40;10.90;80.70
9448;DHT22;4762;48.128;11.376;2023-01-15T07:08:43;10.80;80.90
9448;DHT22;4762;48.128;11.376;2023-01-15T07:10:45;10.90;80.60
9448;DHT22;4762;48.128;11.376;2023-01-15T07:12:47;10.80;80.70
9448;DHT22;4762;48.128;11.376;2023-01-15T07:14:50;10.90;80.80
9448;DHT22;4762;48.128;11.376;2023-01-15T07:16:52;10.80;81.00
9448;DHT22;4762;48.128;11.376;2023-01-15T07:18:54;10.90;80.80
9448;DHT22;4762;48.128;11.376;2023-01-15T07:21:00;10.90;80.80
9448;DHT22;4762;48.128;11.376;2023-01-15T07:23:02;10.80;81.50
9448;DHT22;4762;48.128;11.376;2023-01-15T07:25:07;10.80;81.20
9448;DHT22;4762;48.128;11.376;2023-01-15T07:27:09;10.90;80.80
9448;DHT22;4762;48.128;11.376;2023-01-15T07:29:12;10.80;80.80
9448;DHT22;4762;48.128;11.376;2023-01-15T07:31:15;10.90;81.00
9448;DHT22;4762;48.128;11.376;2023-01-15T07:33:18;10.90;81.00
9448;DHT22;4762;48.128;11.376;2023-01-15T07:35:20;10.80;81.10
9448;DHT22;4762;48.128;11.376;2023-01-15T07:37:22;10.90;80.70
9448;DHT22;4762;48.128;11.376;2023-01-15T07:39:25;10.90;80.60
9448;DHT22;4762;48.128;11.376;2023-01-15T07:41:27;11.00;80.70
9448;DHT22;4762;48.128;11.376;2023-01-15T07:43:35;11.00;80.60
9448;DHT22;4762;48.128;11.376;2023-01-15T07:45:43;10.90;80.60
9448;DHT22;4762;48.128;11.376;2023-01-15T07:47:52;10.90;80.50
9448;DHT22;4762;48.128;11.376;2023-01-15T07:50:00;10.80;80.90
9448;DHT22;4762;48.128;11.376;2023-01-15T07:52:02;10.80;80.70
9448;DHT22;4762;48.128;11.376;2023-01-15T07:54:05;10.90;80.40
9448;DHT22;4762;48.128;11.376;2023-01-15T07:56:07;10.90;80.30
9448;DHT22;4762;48.128;11.376;2023-01-15T07:58:10;11.10;79.60
9448;DHT22;4762;48.128;11.376;2023-01-15T08:00:13;11.00;79.80
9448;DHT22;4762;48.128;11.376;2023-01-15T08:02:16;11.10;79.70
9448;DHT22;4762;48.128;11.376;2023-01-15T08:04:23;11.00;79.90
9448;DHT22;4762;48.128;11.376;2023-01-15T08:06:25;11.10;79.80
9448;DHT22;4762;48.128;11.376;2023-01-15T08:08:27;11.00;80.30
9448;DHT22;4762;48.128;11.376;2023-01-15T08:10:31;11.00;80.30
9448;DHT22;4762;48.128;11.376;2023-01-15T08:12:33;10.90;80.40
9448;DHT22;4762;48.128;11.376;2023-01-15T08:14:42;10.90;80.40
9448;DHT22;4762;48.128;11.376;2023-01-15T08:16:50;11.10;80.40
9448;DHT22;4762;48.128;11.376;2023-01-15T08:18:52;11.00;80.20
9448;DHT22;4762;48.128;11.376;2023-01-15T08:20:54;11.00;80.70
9448;DHT22;4762;48.128;11.376;2023-01-15T08:22:57;11.10;80.50
9448;DHT22;4762;48.128;11.376;2023-01-15T08:25:00;11.10;80.70
9448;DHT22;4762;48.128;11.376;2023-01-15T08:27:04;11.00;80.70
9448;DHT22;4762;48.128;11.376;2023-01-15T08:29:06;11.10;80.50
9448;DHT22;4762;48.128;11.376;2023-01-15T08:31:08;11.10;80.50
9448;DHT22;4762;48.128;11.376;2023-01-15T08:33:11;11.10;80.60
9448;DHT22;4762;48.128;11.376;2023-01-15T08:35:13;11.20;80.40
9448;DHT22;4762;48.128;11.376;2023-01-15T08:37:16;11.20;80.50
9448;DHT22;4762;48.128;11.376;2023-01-15T08:39:18;11.20;80.10
9448;DHT22;4762;48.128;11.376;2023-01-15T08:41:21;11.30;79.80
9448;DHT22;4762;48.128;11.376;2023-01-15T08:43:24;11.40;79.80
9448;DHT22;4762;48.128;11.376;2023-01-15T08:45:26;11.30;79.90
9448;DHT22;4762;48.128;11.376;2023-01-15T08:47:28;11.60;79.40
9448;DHT22;4762;48.128;11.376;2023-01-15T08:49:30;11.40;79.30
9448;DHT22;4762;48.128;11.376;2023-01-15T08:51:33;11.50;79.30
9448;DHT22;4762;48.128;11.376;2023-01-15T08:53:35;11.50;78.70
9448;DHT22;4762;48.128;11.376;2023-01-15T08:55:38;11.50;79.10
9448;DHT22;4762;48.128;11.376;2023-01-15T08:57:40;11.40;79.10
9448;DHT22;4762;48.128;11.376;2023-01-15T08:59:43;11.40;78.60
9448;DHT22;4762;48.128;11.376;2023-01-15T09:01:45;11.50;78.70
9448;DHT22;4762;48.128;11.376;2023-01-15T09:03:48;11.50;79.00
9448;DHT22;4762;48.128;11.376;2023-01-15T09:05:50;11.40;78.70
9448;DHT22;4762;48.128;11.376;2023-01-15T09:07:53;11.50;78.40
9448;DHT22;4762;48.128;11.376;2023-01-15T09:09:55;11.40;78.00
9448;DHT22;4762;48.128;11.376;2023-01-15T09:11:58;11.60;77.40
9448;DHT22;4762;48.128;11.376;2023-01-15T09:14:00;11.90;76.30
9448;DHT22;4762;48.128;11.376;2023-01-15T09:16:04;12.20;75.00
9448;DHT22;4762;48.128;11.376;2023-01-15T09:18:06;12.20;74.90
9448;DHT22;4762;48.128;11.376;2023-01-15T09:20:10;12.20;75.00
9448;DHT22;4762;48.128;11.376;2023-01-15T09:22:13;12.20;74.90
9448;DHT22;4762;48.128;11.376;2023-01-15T09:24:15;12.40;75.10
9448;DHT22;4762;48.128;11.376;2023-01-15T09:26:26;12.50;73.90
9448;DHT22;4762;48.128;11.376;2023-01-15T09:28:28;12.70;73.80
9448;DHT22;4762;48.128;11.376;2023-01-15T09:30:30;12.60;73.20
9448;DHT22;4762;48.128;11.376;2023-01-15T09:32:33;12.60;73.30
9448;DHT22;4762;48.128;11.376;2023-01-15T09:34:35;12.70;72.50
9448;DHT22;4762;48.128;11.376;2023-01-15T09:36:38;12.70;72.60
9448;DHT22;4762;48.128;11.376;2023-01-15T09:38:41;12.80;72.50
9448;DHT22;4762;48.128;11.376;2023-01-15T09:40:50;12.80;71.70
9448;DHT22;4762;48.128;11.376;2023-01-15T09:42:57;12.80;72.10
9448;DHT22;4762;48.128;11.376;2023-01-15T09:45:09;12.90;72.60
9448;DHT22;4762;48.128;11.376;2023-01-15T09:47:25;12.90;72.30
9448;DHT22;4762;48.128;11.376;2023-01-15T09:49:41;12.90;71.80
9448;DHT22;4762;48.128;11.376;2023-01-15T09:51:49;13.00;70.90
9448;DHT22;4762;48.128;11.376;2023-01-15T09:53:59;13.10;70.80
9448;DHT22;4762;48.128;11.376;2023-01-15T09:55:59;13.00;71.60
9448;DHT22;4762;48.128;11.376;2023-01-15T09:58:02;12.90;72.40
9448;DHT22;4762;48.128;11.376;2023-01-15T10:00:04;12.90;71.50
9448;DHT22;4762;48.128;11.376;2023-01-15T10:02:12;12.80;71.90
9448;DHT22;4762;48.128;11.376;2023-01-15T10:04:37;12.40;74.90
9448;DHT22;4762;48.128;11.376;2023-01-15T10:06:40;9.80;82.10
9448;DHT22;4762;48.128;11.376;2023-01-15T10:08:47;8.70;85.10
9448;DHT22;4762;48.128;11.376;2023-01-15T10:10:53;8.10;86.00
9448;DHT22;4762;48.128;11.376;2023-01-15T10:12:53;7.90;87.10
9448;DHT22;4762;48.128;11.376;2023-01-15T10:15:18;7.60;86.30
9448;DHT22;4762;48.128;11.376;2023-01-15T10:17:38;7.50;86.10
9448;DHT22;4762;48.128;11.376;2023-01-15T10:19:39;7.10;86.30
9448;DHT22;4762;48.128;11.376;2023-01-15T10:21:49;6.80;86.00
9448;DHT22;4762;48.128;11.376;2023-01-15T10:24:14;6.70;86.50
9448;DHT22;4762;48.128;11.376;2023-01-15T10:31:16;6.70;87.90
9448;DHT22;4762;48.128;11.376;2023-01-15T10:33:24;6.70;87.50
9448;DHT22;4762;48.128;11.376;2023-01-15T10:35:30;6.70;87.20
9448;DHT22;4762;48.128;11.376;2023-01-15T10:37:41;6.90;87.50
9448;DHT22;4762;48.128;11.376;2023-01-15T10:40:04;6.50;87.20
9448;DHT22;4762;48.128;11.376;2023-01-15T10:44:22;6.10;88.30
9448;DHT22;4762;48.128;11.376;2023-01-15T11:03:39;6.10;88.80
9448;DHT22;4762;48.128;11.376;2023-01-15T11:05:41;6.10;88.80
9448;DHT22;4762;48.128;11.376;2023-01-15T11:07:45;6.10;88.90
9448;DHT22;4762;48.128;11.376;2023-01-15T11:09:47;6.00;89.40
9448;DHT22;4762;48.128;11.376;2023-01-15T11:11:49;5.60;89.60
9448;DHT22;4762;48.128;11.376;2023-01-15T11:14:11;5.60;90.00
9448;DHT22;4762;48.128;11.376;2023-01-15T11:16:23;5.60;89.40
9448;DHT22;4762;48.128;11.376;2023-01-15T11:18:39;5.70;89.60
9448;DHT22;4762;48.128;11.376;2023-01-15T11:20:46;5.80;89.50
9448;DHT22;4762;48.128;11.376;2023-01-15T11:22:48;5.90;89.70
9448;DHT22;4762;48.128;11.376;2023-01-15T11:42:14;5.10;93.10
9448;DHT22;4762;48.128;11.376;2023-01-15T12:01:49;4.90;94.20
9448;DHT22;4762;48.128;11.376;2023-01-15T12:03:41;5.00;94.10
9448;DHT22;4762;48.128;11.376;2023-01-15T12:05:47;4.90;94.20
9448;DHT22;4762;48.128;11.376;2023-01-15T12:07:48;4.90;94.60
9448;DHT22;4762;48.128;11.376;2023-01-15T12:10:00;4.90;94.80
9448;DHT22;4762;48.128;11.376;2023-01-15T12:29:26;4.50;97.90
9448;DHT22;4762;48.128;11.376;2023-01-15T12:31:29;4.50;98.30
9448;DHT22;4762;48.128;11.376;2023-01-15T12:50:49;4.70;97.30
9448;DHT22;4762;48.128;11.376;2023-01-15T13:03:26;4.80;96.50
9448;DHT22;4762;48.128;11.376;2023-01-15T13:05:20;4.90;96.10
9448;DHT22;4762;48.128;11.376;2023-01-15T13:07:40;4.80;95.50
9448;DHT22;4762;48.128;11.376;2023-01-15T13:09:44;4.90;94.10
9448;DHT22;4762;48.128;11.376;2023-01-15T13:11:45;4.80;93.80
9448;DHT22;4762;48.128;11.376;2023-01-15T13:13:48;4.80;92.40
9448;DHT22;4762;48.128;11.376;2023-01-15T13:16:21;4.70;91.80
9448;DHT22;4762;48.128;11.376;2023-01-15T13:18:29;4.80;92.20
9448;DHT22;4762;48.128;11.376;2023-01-15T13:20:35;4.80;92.30
9448;DHT22;4762;48.128;11.376;2023-01-15T13:22:46;4.50;91.60
9448;DHT22;4762;48.128;11.376;2023-01-15T13:24:48;4.40;91.50
9448;DHT22;4762;48.128;11.376;2023-01-15T13:26:56;4.40;92.60
9448;DHT22;4762;48.128;11.376;2023-01-15T13:32:17;4.30;91.80
9448;DHT22;4762;48.128;11.376;2023-01-15T13:33:32;4.40;92.00
9448;DHT22;4762;48.128;11.376;2023-01-15T13:35:36;4.40;91.70
9448;DHT22;4762;48.128;11.376;2023-01-15T13:37:43;4.40;91.70
9448;DHT22;4762;48.128;11.376;2023-01-15T13:39:49;4.40;91.60
9448;DHT22;4762;48.128;11.376;2023-01-15T13:41:54;4.40;91.20
9448;DHT22;4762;48.128;11.376;2023-01-15T13:44:02;4.40;91.30
9448;DHT22;4762;48.128;11.376;2023-01-15T13:46:07;4.50;91.60
9448;DHT22;4762;48.128;11.376;2023-01-15T13:48:17;4.40;91.50
9448;DHT22;4762;48.128;11.376;2023-01-15T13:50:41;4.50;91.60
9448;DHT22;4762;48.128;11.376;2023-01-15T13:52:46;4.50;91.30
9448;DHT22;4762;48.128;11.376;2023-01-15T13:54:48;4.20;91.40
9448;DHT22;4762;48.128;11.376;2023-01-15T13:56:52;4.30;91.90
9448;DHT22;4762;48.128;11.376;2023-01-15T13:58:57;4.10;91.90
9448;DHT22;4762;48.128;11.376;2023-01-15T14:01:21;4.30;92.10
9448;DHT22;4762;48.128;11.376;2023-01-15T14:03:25;4.50;92.10
9448;DHT22;4762;48.128;11.376;2023-01-15T14:07:34;4.20;91.80
9448;DHT22;4762;48.128;11.376;2023-01-15T14:09:35;4.00;92.10
9448;DHT22;4762;48.128;11.376;2023-01-15T14:12:05;4.20;91.80
9448;DHT22;4762;48.128;11.376;2023-01-15T14:16:37;4.00;92.00
9448;DHT22;4762;48.128;11.376;2023-01-15T14:18:52;4.30;91.80
9448;DHT22;4762;48.128;11.376;2023-01-15T14:21:13;4.10;92.40
9448;DHT22;4762;48.128;11.376;2023-01-15T14:23:21;3.90;93.20
9448;DHT22;4762;48.128;11.376;2023-01-15T14:25:32;3.80;93.10
9448;DHT22;4762;48.128;11.376;2023-01-15T14:30:23;3.50;94.20
9448;DHT22;4762;48.128;11.376;2023-01-15T14:32:57;3.60;94.80
9448;DHT22;4762;48.128;11.376;2023-01-15T14:34:39;3.10;95.40
9448;DHT22;4762;48.128;11.376;2023-01-15T14:36:45;3.20;96.20
9448;DHT22;4762;48.128;11.376;2023-01-15T14:38:48;2.80;96.90
9448;DHT22;4762;48.128;11.376;2023-01-15T14:40:53;2.90;97.50
9448;DHT22;4762;48.128;11.376;2023-01-15T14:42:54;3.00;97.50
9448;DHT22;4762;48.128;11.376;2023-01-15T14:45:04;2.90;98.00
9448;DHT22;4762;48.128;11.376;2023-01-15T14:47:10;2.90;98.10
9448;DHT22;4762;48.128;11.376;2023-01-15T14:51:25;2.80;97.70
9448;DHT22;4762;48.128;11.376;2023-01-15T14:53:37;2.70;98.60
9448;DHT22;4762;48.128;11.376;2023-01-15T14:55:41;2.60;98.20
9448;DHT22;4762;48.128;11.376;2023-01-15T14:57:43;2.40;98.70
9448;DHT22;4762;48.128;11.376;2023-01-15T14:59:48;2.40;98.60
9448;DHT22;4762;48.128;11.376;2023-01-15T15:01:51;2.50;98.80
9448;DHT22;4762;48.128;11.376;2023-01-15T15:03:55;2.40;98.90
9448;DHT22;4762;48.128;11.376;2023-01-15T15:05:56;2.10;99.10
9448;DHT22;4762;48.128;11.376;2023-01-15T15:07:59;2.20;98.80
9448;DHT22;4762;48.128;11.376;2023-01-15T15:10:08;2.30;99.00
9448;DHT22;4762;48.128;11.376;2023-01-15T15:12:17;2.10;99.20
9448;DHT22;4762;48.128;11.376;2023-01-15T15:14:20;2.20;99.00
9448;DHT22;4762;48.128;11.376;2023-01-15T15:16:25;2.10;99.00
9448;DHT22;4762;48.128;11.376;2023-01-15T15:18:31;2.00;98.90
9448;DHT22;4762;48.128;11.376;2023-01-15T15:20:43;2.20;99.50
9448;DHT22;4762;48.128;11.376;2023-01-15T15:22:44;2.30;99.40
9448;DHT22;4762;48.128;11.376;2023-01-15T15:24:47;2.20;99.60
9448;DHT22;4762;48.128;11.376;2023-01-15T15:26:48;2.40;99.30
9448;DHT22;4762;48.128;11.376;2023-01-15T15:28:58;2.50;99.30
9448;DHT22;4762;48.128;11.376;2023-01-15T15:30:59;2.60;99.40
9448;DHT22;4762;48.128;11.376;2023-01-15T15:33:03;2.70;99.50
9448;DHT22;4762;48.128;11.376;2023-01-15T15:35:15;2.50;99.10
9448;DHT22;4762;48.128;11.376;2023-01-15T15:37:14;2.60;99.20
9448;DHT22;4762;48.128;11.376;2023-01-15T15:39:19;2.50;99.10
9448;DHT22;4762;48.128;11.376;2023-01-15T15:41:21;2.70;99.30
9448;DHT22;4762;48.128;11.376;2023-01-15T15:43:27;2.70;99.10
9448;DHT22;4762;48.128;11.376;2023-01-15T15:45:34;2.80;98.90
9448;DHT22;4762;48.128;11.376;2023-01-15T15:47:42;2.60;99.10
9448;DHT22;4762;48.128;11.376;2023-01-15T15:49:49;2.60;99.00
9448;DHT22;4762;48.128;11.376;2023-01-15T15:51:52;2.80;98.90
9448;DHT22;4762;48.128;11.376;2023-01-15T15:54:02;2.70;99.00
9448;DHT22;4762;48.128;11.376;2023-01-15T15:56:04;2.70;99.00
9448;DHT22;4762;48.128;11.376;2023-01-15T15:58:07;2.60;98.60
9448;DHT22;4762;48.128;11.376;2023-01-15T16:00:18;2.70;98.70
9448;DHT22;4762;48.128;11.376;2023-01-15T16:02:23;2.70;98.50
9448;DHT22;4762;48.128;11.376;2023-01-15T16:04:25;2.80;97.50
9448;DHT22;4762;48.128;11.376;2023-01-15T16:06:27;2.90;97.10